PWSweather.com
Personal Weather Stations
Station Observations
WD4JKH
Forsyth, GA 31029

Forsyth, GA 31029

Lat: 33.033225, Lon: -83.927995

Elevation: 709

Station Type: Davis Vantage VUE

High Low Average
Temperature 91.0°F32.8°C 72.2°F22.3°C 81.9°F27.7°C
Dew Point 76.8°F24.9°C 69.6°F20.9°C 73.5°F23.1°C
Winds 6.8 mph 10.9 kmh Calm Calm 2.0 mph WSW3.2 kmh WSW
Wind Gusts 15.0 mph24.1 kmh -- 7.0 mph11.3 kmh
Humidity 98% 54% 77%
Pressure 30.02 in1016.6 mb 29.92 in1013.2 mb -
Precipitation 0.00 in0.0 mm - -
Hour Temp Dew Point Humidity Winds Wind Gusts Pressure Precip Precip Rate Daily Precip Total
12:01 AM 75.4°F24.1°C 72.9°F22.7°C 92% 1.7 mph SW2.7 kmh SW 6.0 mph9.7 kmh 29.93 in1013.5 mb 0.00 in0.0 mm 0.00 in0.0 mm 0.00 in0.0 mm
12:06 AM 75.4°F24.1°C 72.9°F22.7°C 92% 2.1 mph WSW3.4 kmh WSW 6.0 mph9.7 kmh 29.93 in1013.5 mb 0.00 in0.0 mm 0.00 in0.0 mm 0.00 in0.0 mm
12:11 AM 75.3°F24.1°C 73.1°F22.8°C 93% 1.5 mph SW2.4 kmh SW 6.0 mph9.7 kmh 29.93 in1013.5 mb 0.00 in0.0 mm 0.00 in0.0 mm 0.00 in0.0 mm
12:16 AM 75.3°F24.1°C 73.1°F22.8°C 93% 1.8 mph SW2.9 kmh SW 7.0 mph11.3 kmh 29.93 in1013.5 mb 0.00 in0.0 mm 0.00 in0.0 mm 0.00 in0.0 mm
12:21 AM 75.2°F24.0°C 73.0°F22.8°C 93% 2.8 mph SW4.5 kmh SW 7.0 mph11.3 kmh 29.93 in1013.5 mb 0.00 in0.0 mm 0.00 in0.0 mm 0.00 in0.0 mm
12:26 AM 75.1°F23.9°C 72.9°F22.7°C 93% 1.5 mph SW2.4 kmh SW 7.0 mph11.3 kmh 29.93 in1013.5 mb 0.00 in0.0 mm 0.00 in0.0 mm 0.00 in0.0 mm
12:31 AM 74.9°F23.8°C 72.7°F22.6°C 93% 1.9 mph WSW3.1 kmh WSW 7.0 mph11.3 kmh 29.93 in1013.5 mb 0.00 in0.0 mm 0.00 in0.0 mm 0.00 in0.0 mm
12:36 AM 74.8°F23.8°C 72.9°F22.7°C 94% 1.5 mph SW2.4 kmh SW 7.0 mph11.3 kmh 29.93 in1013.5 mb 0.00 in0.0 mm 0.00 in0.0 mm 0.00 in0.0 mm
12:41 AM 74.7°F23.7°C 72.9°F22.7°C 94% 2.1 mph SW3.4 kmh SW 6.0 mph9.7 kmh 29.93 in1013.5 mb 0.00 in0.0 mm 0.00 in0.0 mm 0.00 in0.0 mm
12:46 AM 74.7°F23.7°C 72.8°F22.7°C 94% 2.6 mph SW4.2 kmh SW 7.0 mph11.3 kmh 29.92 in1013.2 mb 0.00 in0.0 mm 0.00 in0.0 mm 0.00 in0.0 mm
12:51 AM 74.7°F23.7°C 72.8°F22.7°C 94% 1.9 mph WSW3.1 kmh WSW 7.0 mph11.3 kmh 29.93 in1013.5 mb 0.00 in0.0 mm 0.00 in0.0 mm 0.00 in0.0 mm
12:56 AM 74.6°F23.7°C 72.7°F22.6°C 94% 1.7 mph SW2.7 kmh SW 7.0 mph11.3 kmh 29.93 in1013.5 mb 0.00 in0.0 mm 0.00 in0.0 mm 0.00 in0.0 mm
01:01 AM 74.5°F23.6°C 72.6°F22.6°C 94% 2.1 mph WSW3.4 kmh WSW 7.0 mph11.3 kmh 29.92 in1013.2 mb 0.00 in0.0 mm 0.00 in0.0 mm 0.00 in0.0 mm
01:06 AM 74.5°F23.6°C 72.9°F22.7°C 95% 1.0 mph SW1.6 kmh SW 5.0 mph8.0 kmh 29.93 in1013.5 mb 0.00 in0.0 mm 0.00 in0.0 mm 0.00 in0.0 mm
01:11 AM 74.4°F23.6°C 72.8°F22.7°C 95% 1.7 mph SW2.7 kmh SW 5.0 mph8.0 kmh 29.93 in1013.5 mb 0.00 in0.0 mm 0.00 in0.0 mm 0.00 in0.0 mm
01:16 AM 74.4°F23.6°C 72.9°F22.7°C 95% 1.0 mph SW1.6 kmh SW 5.0 mph8.0 kmh 29.92 in1013.2 mb 0.00 in0.0 mm 0.00 in0.0 mm 0.00 in0.0 mm
01:21 AM 74.4°F23.6°C 72.8°F22.7°C 95% 1.5 mph SW2.4 kmh SW 5.0 mph8.0 kmh 29.92 in1013.2 mb 0.00 in0.0 mm 0.00 in0.0 mm 0.00 in0.0 mm
01:26 AM 74.3°F23.5°C 72.7°F22.6°C 95% 1.6 mph SW2.6 kmh SW 5.0 mph8.0 kmh 29.92 in1013.2 mb 0.00 in0.0 mm 0.00 in0.0 mm 0.00 in0.0 mm
01:31 AM 74.2°F23.4°C 72.6°F22.6°C 95% 1.2 mph SW1.9 kmh SW 5.0 mph8.0 kmh 29.92 in1013.2 mb 0.00 in0.0 mm 0.00 in0.0 mm 0.00 in0.0 mm
01:35 AM 74.1°F23.4°C 72.5°F22.5°C 95% 1.5 mph SW2.4 kmh SW 5.0 mph8.0 kmh 29.92 in1013.2 mb 0.00 in0.0 mm 0.00 in0.0 mm 0.00 in0.0 mm
01:40 AM 74.1°F23.4°C 72.5°F22.5°C 95% 1.6 mph SW2.6 kmh SW 5.0 mph8.0 kmh 29.92 in1013.2 mb 0.00 in0.0 mm 0.00 in0.0 mm 0.00 in0.0 mm
01:45 AM 74.0°F23.3°C 72.4°F22.4°C 95% 2.1 mph SW3.4 kmh SW 5.0 mph8.0 kmh 29.92 in1013.2 mb 0.00 in0.0 mm 0.00 in0.0 mm 0.00 in0.0 mm
01:50 AM 74.1°F23.4°C 72.5°F22.5°C 95% 1.8 mph SW2.9 kmh SW 6.0 mph9.7 kmh 29.92 in1013.2 mb 0.00 in0.0 mm 0.00 in0.0 mm 0.00 in0.0 mm
01:55 AM 74.1°F23.4°C 72.6°F22.6°C 95% 2.1 mph SW3.4 kmh SW 6.0 mph9.7 kmh 29.92 in1013.2 mb 0.00 in0.0 mm 0.00 in0.0 mm 0.00 in0.0 mm
02:00 AM 74.1°F23.4°C 72.5°F22.5°C 95% 1.0 mph SW1.6 kmh SW 6.0 mph9.7 kmh 29.92 in1013.2 mb 0.00 in0.0 mm 0.00 in0.0 mm 0.00 in0.0 mm
02:05 AM 74.0°F23.3°C 72.4°F22.4°C 95% 1.0 mph SW1.6 kmh SW 6.0 mph9.7 kmh 29.92 in1013.2 mb 0.00 in0.0 mm 0.00 in0.0 mm 0.00 in0.0 mm
02:10 AM 73.9°F23.3°C 72.3°F22.4°C 95% 1.5 mph SW2.4 kmh SW 4.0 mph6.4 kmh 29.92 in1013.2 mb 0.00 in0.0 mm 0.00 in0.0 mm 0.00 in0.0 mm
02:15 AM 73.8°F23.2°C 72.6°F22.6°C 96% 1.2 mph SW1.9 kmh SW 5.0 mph8.0 kmh 29.92 in1013.2 mb 0.00 in0.0 mm 0.00 in0.0 mm 0.00 in0.0 mm
02:20 AM 73.8°F23.2°C 72.6°F22.6°C 96% 1.3 mph SW2.1 kmh SW 6.0 mph9.7 kmh 29.92 in1013.2 mb 0.00 in0.0 mm 0.00 in0.0 mm 0.00 in0.0 mm
02:25 AM 73.8°F23.2°C 72.6°F22.6°C 96% 1.8 mph SW2.9 kmh SW 6.0 mph9.7 kmh 29.92 in1013.2 mb 0.00 in0.0 mm 0.00 in0.0 mm 0.00 in0.0 mm
02:30 AM 73.7°F23.2°C 72.5°F22.5°C 96% 1.0 mph SW1.6 kmh SW 6.0 mph9.7 kmh 29.92 in1013.2 mb 0.00 in0.0 mm 0.00 in0.0 mm 0.00 in0.0 mm
02:35 AM 73.6°F23.1°C 72.4°F22.4°C 96% 1.0 mph SW1.6 kmh SW 6.0 mph9.7 kmh 29.92 in1013.2 mb 0.00 in0.0 mm 0.00 in0.0 mm 0.00 in0.0 mm
02:40 AM 73.6°F23.1°C 72.4°F22.4°C 96% 1.4 mph SW2.3 kmh SW 6.0 mph9.7 kmh 29.92 in1013.2 mb 0.00 in0.0 mm 0.00 in0.0 mm 0.00 in0.0 mm
02:45 AM 73.5°F23.1°C 72.3°F22.4°C 96% 1.1 mph SW1.8 kmh SW 3.0 mph4.8 kmh 29.92 in1013.2 mb 0.00 in0.0 mm 0.00 in0.0 mm 0.00 in0.0 mm
02:50 AM 73.5°F23.1°C 72.3°F22.4°C 96% 1.4 mph WSW2.3 kmh WSW 4.0 mph6.4 kmh 29.92 in1013.2 mb 0.00 in0.0 mm 0.00 in0.0 mm 0.00 in0.0 mm
02:55 AM 73.5°F23.1°C 72.3°F22.4°C 96% 1.0 mph SW1.6 kmh SW 4.0 mph6.4 kmh 29.92 in1013.2 mb 0.00 in0.0 mm 0.00 in0.0 mm 0.00 in0.0 mm
03:00 AM 73.4°F23.0°C 72.2°F22.3°C 96% 1.1 mph SW1.8 kmh SW 4.0 mph6.4 kmh 29.92 in1013.2 mb 0.00 in0.0 mm 0.00 in0.0 mm 0.00 in0.0 mm
03:05 AM 73.4°F23.0°C 72.2°F22.3°C 96% 1.2 mph SW1.9 kmh SW 3.0 mph4.8 kmh 29.92 in1013.2 mb 0.00 in0.0 mm 0.00 in0.0 mm 0.00 in0.0 mm
03:10 AM 73.3°F22.9°C 72.1°F22.3°C 96% 1.6 mph SW2.6 kmh SW 4.0 mph6.4 kmh 29.92 in1013.2 mb 0.00 in0.0 mm 0.00 in0.0 mm 0.00 in0.0 mm
03:15 AM 73.2°F22.9°C 72.0°F22.2°C 96% 1.7 mph SW2.7 kmh SW 4.0 mph6.4 kmh 29.92 in1013.2 mb 0.00 in0.0 mm 0.00 in0.0 mm 0.00 in0.0 mm
03:20 AM 73.2°F22.9°C 72.0°F22.2°C 96% 1.5 mph SW2.4 kmh SW 4.0 mph6.4 kmh 29.92 in1013.2 mb 0.00 in0.0 mm 0.00 in0.0 mm 0.00 in0.0 mm
03:25 AM 73.1°F22.8°C 71.9°F22.2°C 96% 1.5 mph WSW2.4 kmh WSW 4.0 mph6.4 kmh 29.92 in1013.2 mb 0.00 in0.0 mm 0.00 in0.0 mm 0.00 in0.0 mm
03:30 AM 73.0°F22.8°C 72.1°F22.3°C 97% 1.8 mph SW2.9 kmh SW 4.0 mph6.4 kmh 29.92 in1013.2 mb 0.00 in0.0 mm 0.00 in0.0 mm 0.00 in0.0 mm
03:35 AM 72.9°F22.7°C 72.0°F22.2°C 97% 1.4 mph SW2.3 kmh SW 3.0 mph4.8 kmh 29.92 in1013.2 mb 0.00 in0.0 mm 0.00 in0.0 mm 0.00 in0.0 mm
03:40 AM 72.8°F22.7°C 71.9°F22.2°C 97% 1.8 mph SSW2.9 kmh SSW 4.0 mph6.4 kmh 29.92 in1013.2 mb 0.00 in0.0 mm 0.00 in0.0 mm 0.00 in0.0 mm
03:45 AM 72.7°F22.6°C 71.8°F22.1°C 97% 1.5 mph SW2.4 kmh SW 5.0 mph8.0 kmh 29.92 in1013.2 mb 0.00 in0.0 mm 0.00 in0.0 mm 0.00 in0.0 mm
03:50 AM 72.7°F22.6°C 71.8°F22.1°C 97% 2.3 mph SW3.7 kmh SW 5.0 mph8.0 kmh 29.92 in1013.2 mb 0.00 in0.0 mm 0.00 in0.0 mm 0.00 in0.0 mm
03:55 AM 72.6°F22.6°C 71.7°F22.1°C 97% 1.9 mph SW3.1 kmh SW 5.0 mph8.0 kmh 29.92 in1013.2 mb 0.00 in0.0 mm 0.00 in0.0 mm 0.00 in0.0 mm
04:00 AM 72.6°F22.6°C 71.7°F22.1°C 97% 1.4 mph SW2.3 kmh SW 5.0 mph8.0 kmh 29.93 in1013.5 mb 0.00 in0.0 mm 0.00 in0.0 mm 0.00 in0.0 mm
04:05 AM 72.6°F22.6°C 71.7°F22.1°C 97% 1.1 mph SW1.8 kmh SW 5.0 mph8.0 kmh 29.93 in1013.5 mb 0.00 in0.0 mm 0.00 in0.0 mm 0.00 in0.0 mm
04:10 AM 72.5°F22.5°C 71.6°F22.0°C 97% 1.5 mph SW2.4 kmh SW 5.0 mph8.0 kmh 29.93 in1013.5 mb 0.00 in0.0 mm 0.00 in0.0 mm 0.00 in0.0 mm
04:15 AM 72.5°F22.5°C 71.6°F22.0°C 97% 1.7 mph SW2.7 kmh SW 5.0 mph8.0 kmh 29.93 in1013.5 mb 0.00 in0.0 mm 0.00 in0.0 mm 0.00 in0.0 mm
04:20 AM 72.4°F22.4°C 71.5°F21.9°C 97% 1.8 mph SW2.9 kmh SW 5.0 mph8.0 kmh 29.93 in1013.5 mb 0.00 in0.0 mm 0.00 in0.0 mm 0.00 in0.0 mm
04:25 AM 72.4°F22.4°C 71.5°F21.9°C 97% 1.5 mph SW2.4 kmh SW 4.0 mph6.4 kmh 29.93 in1013.5 mb 0.00 in0.0 mm 0.00 in0.0 mm 0.00 in0.0 mm
04:30 AM 72.4°F22.4°C 71.5°F21.9°C 97% 1.4 mph WSW2.3 kmh WSW 4.0 mph6.4 kmh 29.93 in1013.5 mb 0.00 in0.0 mm 0.00 in0.0 mm 0.00 in0.0 mm
04:35 AM 72.4°F22.4°C 71.5°F21.9°C 97% 1.5 mph SW2.4 kmh SW 4.0 mph6.4 kmh 29.93 in1013.5 mb 0.00 in0.0 mm 0.00 in0.0 mm 0.00 in0.0 mm
04:40 AM 72.5°F22.5°C 71.9°F22.2°C 98% 1.1 mph SW1.8 kmh SW 4.0 mph6.4 kmh 29.94 in1013.9 mb 0.00 in0.0 mm 0.00 in0.0 mm 0.00 in0.0 mm
04:45 AM 72.4°F22.4°C 71.8°F22.1°C 98% 1.8 mph SW2.9 kmh SW 3.0 mph4.8 kmh 29.94 in1013.9 mb 0.00 in0.0 mm 0.00 in0.0 mm 0.00 in0.0 mm
04:50 AM 72.4°F22.4°C 71.5°F21.9°C 97% 1.5 mph WSW2.4 kmh WSW 3.0 mph4.8 kmh 29.94 in1013.9 mb 0.00 in0.0 mm 0.00 in0.0 mm 0.00 in0.0 mm
04:55 AM 72.3°F22.4°C 71.7°F22.1°C 98% 2.0 mph SW3.2 kmh SW 4.0 mph6.4 kmh 29.94 in1013.9 mb 0.00 in0.0 mm 0.00 in0.0 mm 0.00 in0.0 mm
05:00 AM 72.3°F22.4°C 71.7°F22.1°C 98% 1.1 mph WSW1.8 kmh WSW 4.0 mph6.4 kmh 29.94 in1013.9 mb 0.00 in0.0 mm 0.00 in0.0 mm 0.00 in0.0 mm
05:05 AM 72.3°F22.4°C 71.7°F22.1°C 98% 1.8 mph WSW2.9 kmh WSW 4.0 mph6.4 kmh 29.94 in1013.9 mb 0.00 in0.0 mm 0.00 in0.0 mm 0.00 in0.0 mm
05:10 AM 72.3°F22.4°C 71.7°F22.1°C 98% 1.1 mph SW1.8 kmh SW 4.0 mph6.4 kmh 29.95 in1014.2 mb 0.00 in0.0 mm 0.00 in0.0 mm 0.00 in0.0 mm
05:15 AM 72.3°F22.4°C 71.7°F22.1°C 98% 1.6 mph SW2.6 kmh SW 4.0 mph6.4 kmh 29.95 in1014.2 mb 0.00 in0.0 mm 0.00 in0.0 mm 0.00 in0.0 mm
05:20 AM 72.3°F22.4°C 71.7°F22.1°C 98% 1.2 mph WSW1.9 kmh WSW 3.0 mph4.8 kmh 29.95 in1014.2 mb 0.00 in0.0 mm 0.00 in0.0 mm 0.00 in0.0 mm
05:25 AM 72.3°F22.4°C 71.7°F22.1°C 98% 1.2 mph WSW1.9 kmh WSW 4.0 mph6.4 kmh 29.95 in1014.2 mb 0.00 in0.0 mm 0.00 in0.0 mm 0.00 in0.0 mm
05:30 AM 72.2°F22.3°C 71.6°F22.0°C 98% 1.5 mph SW2.4 kmh SW 4.0 mph6.4 kmh 29.95 in1014.2 mb 0.00 in0.0 mm 0.00 in0.0 mm 0.00 in0.0 mm
05:35 AM 72.2°F22.3°C 71.6°F22.0°C 98% 1.4 mph SW2.3 kmh SW 4.0 mph6.4 kmh 29.95 in1014.2 mb 0.00 in0.0 mm 0.00 in0.0 mm 0.00 in0.0 mm
05:40 AM 72.2°F22.3°C 71.6°F22.0°C 98% 1.6 mph WSW2.6 kmh WSW 4.0 mph6.4 kmh 29.95 in1014.2 mb 0.00 in0.0 mm 0.00 in0.0 mm 0.00 in0.0 mm
05:45 AM 72.2°F22.3°C 71.6°F22.0°C 98% 1.8 mph WSW2.9 kmh WSW 5.0 mph8.0 kmh 29.96 in1014.6 mb 0.00 in0.0 mm 0.00 in0.0 mm 0.00 in0.0 mm
05:50 AM 72.2°F22.3°C 71.6°F22.0°C 98% 2.2 mph SW3.5 kmh SW 5.0 mph8.0 kmh 29.96 in1014.6 mb 0.00 in0.0 mm 0.00 in0.0 mm 0.00 in0.0 mm
05:55 AM 72.3°F22.4°C 71.7°F22.1°C 98% 1.4 mph WSW2.3 kmh WSW 5.0 mph8.0 kmh 29.97 in1014.9 mb 0.00 in0.0 mm 0.00 in0.0 mm 0.00 in0.0 mm
06:00 AM 72.4°F22.4°C 71.8°F22.1°C 98% 2.7 mph WSW4.3 kmh WSW 5.0 mph8.0 kmh 29.97 in1014.9 mb 0.00 in0.0 mm 0.00 in0.0 mm 0.00 in0.0 mm
06:05 AM 72.5°F22.5°C 71.9°F22.2°C 98% 1.7 mph SW2.7 kmh SW 5.0 mph8.0 kmh 29.97 in1014.9 mb 0.00 in0.0 mm 0.00 in0.0 mm 0.00 in0.0 mm
06:10 AM 72.6°F22.6°C 72.0°F22.2°C 98% 1.9 mph WSW3.1 kmh WSW 5.0 mph8.0 kmh 29.97 in1014.9 mb 0.00 in0.0 mm 0.00 in0.0 mm 0.00 in0.0 mm
06:15 AM 72.8°F22.7°C 72.2°F22.3°C 98% 1.9 mph WSW3.1 kmh WSW 5.0 mph8.0 kmh 29.97 in1014.9 mb 0.00 in0.0 mm 0.00 in0.0 mm 0.00 in0.0 mm
06:20 AM 73.0°F22.8°C 72.1°F22.3°C 97% 1.6 mph SW2.6 kmh SW 5.0 mph8.0 kmh 29.97 in1014.9 mb 0.00 in0.0 mm 0.00 in0.0 mm 0.00 in0.0 mm
06:25 AM 73.1°F22.8°C 72.2°F22.3°C 97% 2.7 mph WSW4.3 kmh WSW 7.0 mph11.3 kmh 29.97 in1014.9 mb 0.00 in0.0 mm 0.00 in0.0 mm 0.00 in0.0 mm
06:29 AM 73.3°F22.9°C 72.4°F22.4°C 97% 1.8 mph WSW2.9 kmh WSW 7.0 mph11.3 kmh 29.97 in1014.9 mb 0.00 in0.0 mm 0.00 in0.0 mm 0.00 in0.0 mm
06:34 AM 73.6°F23.1°C 72.7°F22.6°C 97% 1.8 mph W2.9 kmh W 7.0 mph11.3 kmh 29.98 in1015.2 mb 0.00 in0.0 mm 0.00 in0.0 mm 0.00 in0.0 mm
06:39 AM 73.8°F23.2°C 72.9°F22.7°C 97% 1.9 mph WSW3.1 kmh WSW 7.0 mph11.3 kmh 29.98 in1015.2 mb 0.00 in0.0 mm 0.00 in0.0 mm 0.00 in0.0 mm
06:44 AM 74.2°F23.4°C 73.3°F22.9°C 97% 1.3 mph WSW2.1 kmh WSW 6.0 mph9.7 kmh 29.98 in1015.2 mb 0.00 in0.0 mm 0.00 in0.0 mm 0.00 in0.0 mm
06:49 AM 74.4°F23.6°C 73.5°F23.1°C 97% 1.5 mph WSW2.4 kmh WSW 6.0 mph9.7 kmh 29.98 in1015.2 mb 0.00 in0.0 mm 0.00 in0.0 mm 0.00 in0.0 mm
06:54 AM 74.8°F23.8°C 73.6°F23.1°C 96% 1.5 mph W2.4 kmh W 6.0 mph9.7 kmh 29.98 in1015.2 mb 0.00 in0.0 mm 0.00 in0.0 mm 0.00 in0.0 mm
06:59 AM 75.1°F23.9°C 73.5°F23.1°C 95% 2.8 mph W4.5 kmh W 8.0 mph12.9 kmh 29.98 in1015.2 mb 0.00 in0.0 mm 0.00 in0.0 mm 0.00 in0.0 mm
07:04 AM 75.4°F24.1°C 73.5°F23.1°C 94% 2.4 mph W3.9 kmh W 8.0 mph12.9 kmh 29.98 in1015.2 mb 0.00 in0.0 mm 0.00 in0.0 mm 0.00 in0.0 mm
07:09 AM 75.7°F24.3°C 73.5°F23.1°C 93% 3.0 mph WSW4.8 kmh WSW 8.0 mph12.9 kmh 29.99 in1015.6 mb 0.00 in0.0 mm 0.00 in0.0 mm 0.00 in0.0 mm
07:14 AM 75.9°F24.4°C 73.7°F23.2°C 93% 1.8 mph W2.9 kmh W 7.0 mph11.3 kmh 29.99 in1015.6 mb 0.00 in0.0 mm 0.00 in0.0 mm 0.00 in0.0 mm
07:19 AM 76.3°F24.6°C 73.8°F23.2°C 92% 1.9 mph W3.1 kmh W 7.0 mph11.3 kmh 29.99 in1015.6 mb 0.00 in0.0 mm 0.00 in0.0 mm 0.00 in0.0 mm
07:24 AM 76.5°F24.7°C 73.7°F23.2°C 91% 1.4 mph W2.3 kmh W 8.0 mph12.9 kmh 29.99 in1015.6 mb 0.00 in0.0 mm 0.00 in0.0 mm 0.00 in0.0 mm
07:29 AM 76.9°F24.9°C 73.7°F23.2°C 90% 1.5 mph W2.4 kmh W 8.0 mph12.9 kmh 29.99 in1015.6 mb 0.00 in0.0 mm 0.00 in0.0 mm 0.00 in0.0 mm
07:34 AM 77.1°F25.1°C 73.6°F23.1°C 89% 1.5 mph W2.4 kmh W 8.0 mph12.9 kmh 29.99 in1015.6 mb 0.00 in0.0 mm 0.00 in0.0 mm 0.00 in0.0 mm
07:39 AM 77.4°F25.2°C 73.6°F23.1°C 88% 3.0 mph W4.8 kmh W 8.0 mph12.9 kmh 29.99 in1015.6 mb 0.00 in0.0 mm 0.00 in0.0 mm 0.00 in0.0 mm
07:44 AM 77.8°F25.4°C 73.6°F23.1°C 87% 2.3 mph WNW3.7 kmh WNW 7.0 mph11.3 kmh 29.99 in1015.6 mb 0.00 in0.0 mm 0.00 in0.0 mm 0.00 in0.0 mm
07:49 AM 78.1°F25.6°C 73.9°F23.3°C 87% 3.7 mph W6.0 kmh W 7.0 mph11.3 kmh 29.99 in1015.6 mb 0.00 in0.0 mm 0.00 in0.0 mm 0.00 in0.0 mm
07:54 AM 78.4°F25.8°C 73.9°F23.3°C 86% 2.4 mph W3.9 kmh W 7.0 mph11.3 kmh 29.99 in1015.6 mb 0.00 in0.0 mm 0.00 in0.0 mm 0.00 in0.0 mm
07:59 AM 78.7°F25.9°C 73.5°F23.1°C 84% 2.6 mph W4.2 kmh W 6.0 mph9.7 kmh 29.99 in1015.6 mb 0.00 in0.0 mm 0.00 in0.0 mm 0.00 in0.0 mm
08:04 AM 79.2°F26.2°C 73.9°F23.3°C 84% 2.5 mph WNW4.0 kmh WNW 6.0 mph9.7 kmh 29.99 in1015.6 mb 0.00 in0.0 mm 0.00 in0.0 mm 0.00 in0.0 mm
08:09 AM 79.2°F26.2°C 73.3°F22.9°C 82% 3.4 mph W5.5 kmh W 6.0 mph9.7 kmh 29.99 in1015.6 mb 0.00 in0.0 mm 0.00 in0.0 mm 0.00 in0.0 mm
08:14 AM 79.7°F26.5°C 73.8°F23.2°C 82% 2.7 mph WNW4.3 kmh WNW 6.0 mph9.7 kmh 30.00 in1015.9 mb 0.00 in0.0 mm 0.00 in0.0 mm 0.00 in0.0 mm
08:20 AM 79.7°F26.5°C 73.1°F22.8°C 80% 2.4 mph WNW3.9 kmh WNW 8.0 mph12.9 kmh 30.00 in1015.9 mb 0.00 in0.0 mm 0.00 in0.0 mm 0.00 in0.0 mm
08:24 AM 80.0°F26.7°C 73.7°F23.2°C 81% 1.7 mph W2.7 kmh W 8.0 mph12.9 kmh 30.00 in1015.9 mb 0.00 in0.0 mm 0.00 in0.0 mm 0.00 in0.0 mm
08:29 AM 80.3°F26.8°C 73.3°F22.9°C 79% 2.0 mph W3.2 kmh W 8.0 mph12.9 kmh 30.00 in1015.9 mb 0.00 in0.0 mm 0.00 in0.0 mm 0.00 in0.0 mm
08:35 AM 80.6°F27.0°C 73.2°F22.9°C 78% 2.7 mph NW4.3 kmh NW 8.0 mph12.9 kmh 30.00 in1015.9 mb 0.00 in0.0 mm 0.00 in0.0 mm 0.00 in0.0 mm
08:39 AM 80.5°F26.9°C 73.1°F22.8°C 78% 2.9 mph W4.7 kmh W 8.0 mph12.9 kmh 30.01 in1016.3 mb 0.00 in0.0 mm 0.00 in0.0 mm 0.00 in0.0 mm
08:45 AM 80.4°F26.9°C 72.7°F22.6°C 77% 3.8 mph WNW6.1 kmh WNW 8.0 mph12.9 kmh 30.01 in1016.3 mb 0.00 in0.0 mm 0.00 in0.0 mm 0.00 in0.0 mm
08:50 AM 80.6°F27.0°C 73.2°F22.9°C 78% 2.6 mph WNW4.2 kmh WNW 11.0 mph17.7 kmh 30.01 in1016.3 mb 0.00 in0.0 mm 0.00 in0.0 mm 0.00 in0.0 mm
08:55 AM 81.1°F27.3°C 72.8°F22.7°C 76% 4.1 mph WNW6.6 kmh WNW 11.0 mph17.7 kmh 30.01 in1016.3 mb 0.00 in0.0 mm 0.00 in0.0 mm 0.00 in0.0 mm
09:00 AM 81.1°F27.3°C 73.4°F23.0°C 77% 2.5 mph W4.0 kmh W 11.0 mph17.7 kmh 30.01 in1016.3 mb 0.00 in0.0 mm 0.00 in0.0 mm 0.00 in0.0 mm
09:05 AM 81.0°F27.2°C 72.9°F22.7°C 76% 3.3 mph WNW5.3 kmh WNW 11.0 mph17.7 kmh 30.01 in1016.3 mb 0.00 in0.0 mm 0.00 in0.0 mm 0.00 in0.0 mm
09:10 AM 81.2°F27.3°C 73.1°F22.8°C 76% 3.1 mph W5.0 kmh W 9.0 mph14.5 kmh 30.01 in1016.3 mb 0.00 in0.0 mm 0.00 in0.0 mm 0.00 in0.0 mm
09:15 AM 81.4°F27.4°C 73.7°F23.2°C 77% 1.5 mph NW2.4 kmh NW 8.0 mph12.9 kmh 30.01 in1016.3 mb 0.00 in0.0 mm 0.00 in0.0 mm 0.00 in0.0 mm
09:20 AM 81.6°F27.6°C 72.7°F22.6°C 74% 4.5 mph W7.2 kmh W 7.0 mph11.3 kmh 30.02 in1016.6 mb 0.00 in0.0 mm 0.00 in0.0 mm 0.00 in0.0 mm
09:25 AM 82.1°F27.8°C 73.6°F23.1°C 75% 2.6 mph WNW4.2 kmh WNW 7.0 mph11.3 kmh 30.02 in1016.6 mb 0.00 in0.0 mm 0.00 in0.0 mm 0.00 in0.0 mm
09:30 AM 82.2°F27.9°C 73.3°F22.9°C 74% 2.6 mph NW4.2 kmh NW 7.0 mph11.3 kmh 30.02 in1016.6 mb 0.00 in0.0 mm 0.00 in0.0 mm 0.00 in0.0 mm
09:35 AM 82.4°F28.0°C 73.5°F23.1°C 74% 3.5 mph NW5.6 kmh NW 7.0 mph11.3 kmh 30.02 in1016.6 mb 0.00 in0.0 mm 0.00 in0.0 mm 0.00 in0.0 mm
09:40 AM 82.3°F27.9°C 72.4°F22.4°C 72% 5.2 mph W8.4 kmh W 10.0 mph16.1 kmh 30.02 in1016.6 mb 0.00 in0.0 mm 0.00 in0.0 mm 0.00 in0.0 mm
09:45 AM 82.2°F27.9°C 72.5°F22.5°C 72% 3.3 mph WSW5.3 kmh WSW 10.0 mph16.1 kmh 30.02 in1016.6 mb 0.00 in0.0 mm 0.00 in0.0 mm 0.00 in0.0 mm
09:50 AM 82.5°F28.1°C 73.2°F22.9°C 73% 3.4 mph W5.5 kmh W 10.0 mph16.1 kmh 30.02 in1016.6 mb 0.00 in0.0 mm 0.00 in0.0 mm 0.00 in0.0 mm
09:55 AM 82.6°F28.1°C 73.7°F23.2°C 74% 1.7 mph WNW2.7 kmh WNW 10.0 mph16.1 kmh 30.02 in1016.6 mb 0.00 in0.0 mm 0.00 in0.0 mm 0.00 in0.0 mm
10:00 AM 83.0°F28.3°C 73.0°F22.8°C 72% 4.0 mph WNW6.4 kmh WNW 9.0 mph14.5 kmh 30.02 in1016.6 mb 0.00 in0.0 mm 0.00 in0.0 mm 0.00 in0.0 mm
10:05 AM 82.7°F28.2°C 73.0°F22.8°C 72% 5.3 mph NW8.5 kmh NW 10.0 mph16.1 kmh 30.02 in1016.6 mb 0.00 in0.0 mm 0.00 in0.0 mm 0.00 in0.0 mm
10:10 AM 82.8°F28.2°C 72.7°F22.6°C 71% 3.0 mph NW4.8 kmh NW 10.0 mph16.1 kmh 30.02 in1016.6 mb 0.00 in0.0 mm 0.00 in0.0 mm 0.00 in0.0 mm
10:15 AM 83.1°F28.4°C 73.4°F23.0°C 72% 3.4 mph WSW5.5 kmh WSW 11.0 mph17.7 kmh 30.02 in1016.6 mb 0.00 in0.0 mm 0.00 in0.0 mm 0.00 in0.0 mm
10:20 AM 83.2°F28.4°C 73.6°F23.1°C 73% 1.5 mph W2.4 kmh W 11.0 mph17.7 kmh 30.02 in1016.6 mb 0.00 in0.0 mm 0.00 in0.0 mm 0.00 in0.0 mm
10:25 AM 83.4°F28.6°C 73.6°F23.1°C 72% 3.5 mph W5.6 kmh W 11.0 mph17.7 kmh 30.02 in1016.6 mb 0.00 in0.0 mm 0.00 in0.0 mm 0.00 in0.0 mm
10:30 AM 84.0°F28.9°C 73.8°F23.2°C 71% 2.4 mph WSW3.9 kmh WSW 11.0 mph17.7 kmh 30.02 in1016.6 mb 0.00 in0.0 mm 0.00 in0.0 mm 0.00 in0.0 mm
10:35 AM 84.1°F28.9°C 73.1°F22.8°C 69% 3.3 mph WNW5.3 kmh WNW 9.0 mph14.5 kmh 30.02 in1016.6 mb 0.00 in0.0 mm 0.00 in0.0 mm 0.00 in0.0 mm
10:40 AM 84.3°F29.1°C 72.8°F22.7°C 68% 3.0 mph NW4.8 kmh NW 9.0 mph14.5 kmh 30.02 in1016.6 mb 0.00 in0.0 mm 0.00 in0.0 mm 0.00 in0.0 mm
10:45 AM 84.1°F28.9°C 72.8°F22.7°C 69% 3.1 mph WSW5.0 kmh WSW 10.0 mph16.1 kmh 30.02 in1016.6 mb 0.00 in0.0 mm 0.00 in0.0 mm 0.00 in0.0 mm
10:50 AM 84.1°F28.9°C 73.1°F22.8°C 69% 2.4 mph WSW3.9 kmh WSW 10.0 mph16.1 kmh 30.02 in1016.6 mb 0.00 in0.0 mm 0.00 in0.0 mm 0.00 in0.0 mm
10:55 AM 84.8°F29.3°C 74.6°F23.7°C 71% 1.2 mph SSW1.9 kmh SSW 10.0 mph16.1 kmh 30.02 in1016.6 mb 0.00 in0.0 mm 0.00 in0.0 mm 0.00 in0.0 mm
11:00 AM 84.7°F29.3°C 72.4°F22.4°C 66% 3.3 mph WNW5.3 kmh WNW 10.0 mph16.1 kmh 30.02 in1016.6 mb 0.00 in0.0 mm 0.00 in0.0 mm 0.00 in0.0 mm
11:05 AM 84.6°F29.2°C 71.8°F22.1°C 65% 3.9 mph WNW6.3 kmh WNW 10.0 mph16.1 kmh 30.02 in1016.6 mb 0.00 in0.0 mm 0.00 in0.0 mm 0.00 in0.0 mm
11:10 AM 84.6°F29.2°C 71.8°F22.1°C 65% 6.8 mph W10.9 kmh W 10.0 mph16.1 kmh 30.02 in1016.6 mb 0.00 in0.0 mm 0.00 in0.0 mm 0.00 in0.0 mm
11:15 AM 84.8°F29.3°C 71.7°F22.1°C 65% 4.4 mph WSW7.1 kmh WSW 10.0 mph16.1 kmh 30.02 in1016.6 mb 0.00 in0.0 mm 0.00 in0.0 mm 0.00 in0.0 mm
11:20 AM 84.6°F29.2°C 71.8°F22.1°C 65% 5.7 mph WNW9.2 kmh WNW 10.0 mph16.1 kmh 30.02 in1016.6 mb 0.00 in0.0 mm 0.00 in0.0 mm 0.00 in0.0 mm
11:25 AM 84.6°F29.2°C 71.8°F22.1°C 65% 3.8 mph WNW6.1 kmh WNW 11.0 mph17.7 kmh 30.02 in1016.6 mb 0.00 in0.0 mm 0.00 in0.0 mm 0.00 in0.0 mm
11:29 AM 85.0°F29.4°C 73.3°F22.9°C 68% 2.1 mph WSW3.4 kmh WSW 11.0 mph17.7 kmh 30.02 in1016.6 mb 0.00 in0.0 mm 0.00 in0.0 mm 0.00 in0.0 mm
11:34 AM 85.2°F29.6°C 71.5°F21.9°C 63% 5.4 mph WNW8.7 kmh WNW 15.0 mph24.1 kmh 30.02 in1016.6 mb 0.00 in0.0 mm 0.00 in0.0 mm 0.00 in0.0 mm
11:39 AM 85.3°F29.6°C 71.6°F22.0°C 63% 3.6 mph WSW5.8 kmh WSW 15.0 mph24.1 kmh 30.02 in1016.6 mb 0.00 in0.0 mm 0.00 in0.0 mm 0.00 in0.0 mm
11:44 AM 85.5°F29.7°C 72.2°F22.3°C 64% 3.7 mph W6.0 kmh W 15.0 mph24.1 kmh 30.02 in1016.6 mb 0.00 in0.0 mm 0.00 in0.0 mm 0.00 in0.0 mm
11:49 AM 85.6°F29.8°C 71.1°F21.7°C 62% 3.2 mph WNW5.1 kmh WNW 15.0 mph24.1 kmh 30.02 in1016.6 mb 0.00 in0.0 mm 0.00 in0.0 mm 0.00 in0.0 mm
11:54 AM 85.8°F29.9°C 71.1°F21.7°C 61% 3.8 mph WNW6.1 kmh WNW 9.0 mph14.5 kmh 30.02 in1016.6 mb 0.00 in0.0 mm 0.00 in0.0 mm 0.00 in0.0 mm
11:59 AM 86.3°F30.2°C 71.5°F21.9°C 61% 2.4 mph W3.9 kmh W 8.0 mph12.9 kmh 30.01 in1016.3 mb 0.00 in0.0 mm 0.00 in0.0 mm 0.00 in0.0 mm
12:04 PM 86.9°F30.5°C 71.8°F22.1°C 61% 1.2 mph WSW1.9 kmh WSW 8.0 mph12.9 kmh 30.01 in1016.3 mb 0.00 in0.0 mm 0.00 in0.0 mm 0.00 in0.0 mm
12:09 PM 86.7°F30.4°C 71.9°F22.2°C 61% 3.4 mph W5.5 kmh W 8.0 mph12.9 kmh 30.01 in1016.3 mb 0.00 in0.0 mm 0.00 in0.0 mm 0.00 in0.0 mm
12:14 PM 86.8°F30.4°C 71.5°F21.9°C 60% 4.3 mph WNW6.9 kmh WNW 8.0 mph12.9 kmh 30.01 in1016.3 mb 0.00 in0.0 mm 0.00 in0.0 mm 0.00 in0.0 mm
12:19 PM 86.4°F30.2°C 71.6°F22.0°C 61% 4.5 mph WNW7.2 kmh WNW 11.0 mph17.7 kmh 30.01 in1016.3 mb 0.00 in0.0 mm 0.00 in0.0 mm 0.00 in0.0 mm
12:24 PM 86.8°F30.4°C 72.0°F22.2°C 61% 3.1 mph WNW5.0 kmh WNW 11.0 mph17.7 kmh 30.01 in1016.3 mb 0.00 in0.0 mm 0.00 in0.0 mm 0.00 in0.0 mm
12:29 PM 86.9°F30.5°C 72.1°F22.3°C 61% 5.2 mph WNW8.4 kmh WNW 11.0 mph17.7 kmh 30.01 in1016.3 mb 0.00 in0.0 mm 0.00 in0.0 mm 0.00 in0.0 mm
12:34 PM 86.9°F30.5°C 71.6°F22.0°C 60% 3.3 mph NW5.3 kmh NW 11.0 mph17.7 kmh 30.01 in1016.3 mb 0.00 in0.0 mm 0.00 in0.0 mm 0.00 in0.0 mm
12:39 PM 87.4°F30.8°C 72.8°F22.7°C 62% 4.6 mph WNW7.4 kmh WNW 10.0 mph16.1 kmh 30.01 in1016.3 mb 0.00 in0.0 mm 0.00 in0.0 mm 0.00 in0.0 mm
12:44 PM 87.1°F30.6°C 70.3°F21.3°C 57% 4.7 mph W7.6 kmh W 12.0 mph19.3 kmh 30.01 in1016.3 mb 0.00 in0.0 mm 0.00 in0.0 mm 0.00 in0.0 mm
12:49 PM 87.2°F30.7°C 71.4°F21.9°C 59% 2.1 mph WNW3.4 kmh WNW 12.0 mph19.3 kmh 30.00 in1015.9 mb 0.00 in0.0 mm 0.00 in0.0 mm 0.00 in0.0 mm
12:54 PM 87.9°F31.1°C 71.3°F21.8°C 58% 3.0 mph W4.8 kmh W 12.0 mph19.3 kmh 30.00 in1015.9 mb 0.00 in0.0 mm 0.00 in0.0 mm 0.00 in0.0 mm
12:59 PM 87.6°F30.9°C 70.2°F21.2°C 56% 3.1 mph W5.0 kmh W 12.0 mph19.3 kmh 30.00 in1015.9 mb 0.00 in0.0 mm 0.00 in0.0 mm 0.00 in0.0 mm
01:04 PM 88.3°F31.3°C 72.4°F22.4°C 59% 1.8 mph WSW2.9 kmh WSW 9.0 mph14.5 kmh 30.00 in1015.9 mb 0.00 in0.0 mm 0.00 in0.0 mm 0.00 in0.0 mm
01:09 PM 88.1°F31.2°C 69.6°F20.9°C 54% 6.6 mph W10.6 kmh W 12.0 mph19.3 kmh 30.00 in1015.9 mb 0.00 in0.0 mm 0.00 in0.0 mm 0.00 in0.0 mm
01:14 PM 87.7°F30.9°C 70.3°F21.3°C 56% 4.4 mph WNW7.1 kmh WNW 12.0 mph19.3 kmh 30.00 in1015.9 mb 0.00 in0.0 mm 0.00 in0.0 mm 0.00 in0.0 mm
01:19 PM 88.0°F31.1°C 71.9°F22.2°C 59% 1.9 mph WNW3.1 kmh WNW 12.0 mph19.3 kmh 30.00 in1015.9 mb 0.00 in0.0 mm 0.00 in0.0 mm 0.00 in0.0 mm
01:24 PM 88.5°F31.4°C 70.5°F21.4°C 55% 4.7 mph W7.6 kmh W 12.0 mph19.3 kmh 30.00 in1015.9 mb 0.00 in0.0 mm 0.00 in0.0 mm 0.00 in0.0 mm
01:29 PM 88.8°F31.6°C 71.9°F22.2°C 57% 4.2 mph NW6.8 kmh NW 12.0 mph19.3 kmh 30.00 in1015.9 mb 0.00 in0.0 mm 0.00 in0.0 mm 0.00 in0.0 mm
01:34 PM 89.0°F31.7°C 71.0°F21.7°C 55% 3.9 mph WNW6.3 kmh WNW 10.0 mph16.1 kmh 30.00 in1015.9 mb 0.00 in0.0 mm 0.00 in0.0 mm 0.00 in0.0 mm
01:39 PM 88.5°F31.4°C 70.0°F21.1°C 54% 5.5 mph WNW8.9 kmh WNW 11.0 mph17.7 kmh 30.00 in1015.9 mb 0.00 in0.0 mm 0.00 in0.0 mm 0.00 in0.0 mm
01:44 PM 88.4°F31.3°C 72.0°F22.2°C 58% 4.2 mph WNW6.8 kmh WNW 11.0 mph17.7 kmh 30.00 in1015.9 mb 0.00 in0.0 mm 0.00 in0.0 mm 0.00 in0.0 mm
01:49 PM 88.5°F31.4°C 71.1°F21.7°C 56% 5.2 mph W8.4 kmh W 11.0 mph17.7 kmh 30.00 in1015.9 mb 0.00 in0.0 mm 0.00 in0.0 mm 0.00 in0.0 mm
01:54 PM 88.8°F31.6°C 72.1°F22.3°C 58% 4.3 mph W6.9 kmh W 11.0 mph17.7 kmh 30.01 in1016.3 mb 0.00 in0.0 mm 0.00 in0.0 mm 0.00 in0.0 mm
01:59 PM 88.9°F31.6°C 70.9°F21.6°C 55% 6.8 mph NW10.9 kmh NW 15.0 mph24.1 kmh 30.00 in1015.9 mb 0.00 in0.0 mm 0.00 in0.0 mm 0.00 in0.0 mm
02:04 PM 88.8°F31.6°C 71.1°F21.7°C 56% 4.2 mph WNW6.8 kmh WNW 15.0 mph24.1 kmh 30.00 in1015.9 mb 0.00 in0.0 mm 0.00 in0.0 mm 0.00 in0.0 mm
02:09 PM 89.2°F31.8°C 72.2°F22.3°C 57% 4.3 mph W6.9 kmh W 15.0 mph24.1 kmh 30.00 in1015.9 mb 0.00 in0.0 mm 0.00 in0.0 mm 0.00 in0.0 mm
02:14 PM 89.1°F31.7°C 71.1°F21.7°C 55% 4.5 mph WSW7.2 kmh WSW 15.0 mph24.1 kmh 30.00 in1015.9 mb 0.00 in0.0 mm 0.00 in0.0 mm 0.00 in0.0 mm
02:19 PM 88.6°F31.4°C 70.9°F21.6°C 56% 2.9 mph WSW4.7 kmh WSW 12.0 mph19.3 kmh 30.01 in1016.3 mb 0.00 in0.0 mm 0.00 in0.0 mm 0.00 in0.0 mm
02:24 PM 88.8°F31.6°C 72.4°F22.4°C 58% 2.8 mph W4.5 kmh W 12.0 mph19.3 kmh 30.00 in1015.9 mb 0.00 in0.0 mm 0.00 in0.0 mm 0.00 in0.0 mm
02:29 PM 89.2°F31.8°C 72.8°F22.7°C 58% 3.8 mph WSW6.1 kmh WSW 9.0 mph14.5 kmh 30.00 in1015.9 mb 0.00 in0.0 mm 0.00 in0.0 mm 0.00 in0.0 mm
02:34 PM 89.3°F31.8°C 73.4°F23.0°C 59% 3.8 mph WNW6.1 kmh WNW 9.0 mph14.5 kmh 30.00 in1015.9 mb 0.00 in0.0 mm 0.00 in0.0 mm 0.00 in0.0 mm
02:39 PM 89.0°F31.7°C 72.6°F22.6°C 58% 4.7 mph W7.6 kmh W 11.0 mph17.7 kmh 30.00 in1015.9 mb 0.00 in0.0 mm 0.00 in0.0 mm 0.00 in0.0 mm
02:44 PM 88.9°F31.6°C 72.5°F22.5°C 58% 5.0 mph WNW8.0 kmh WNW 12.0 mph19.3 kmh 30.00 in1015.9 mb 0.00 in0.0 mm 0.00 in0.0 mm 0.00 in0.0 mm
02:49 PM 89.0°F31.7°C 72.3°F22.4°C 58% 4.2 mph W6.8 kmh W 12.0 mph19.3 kmh 30.00 in1015.9 mb 0.00 in0.0 mm 0.00 in0.0 mm 0.00 in0.0 mm
02:54 PM 89.5°F31.9°C 72.8°F22.7°C 58% 3.0 mph WNW4.8 kmh WNW 12.0 mph19.3 kmh 30.00 in1015.9 mb 0.00 in0.0 mm 0.00 in0.0 mm 0.00 in0.0 mm
02:59 PM 89.4°F31.9°C 73.5°F23.1°C 59% 4.0 mph W6.4 kmh W 12.0 mph19.3 kmh 29.99 in1015.6 mb 0.00 in0.0 mm 0.00 in0.0 mm 0.00 in0.0 mm
03:04 PM 89.7°F32.1°C 73.8°F23.2°C 59% 4.3 mph WNW6.9 kmh WNW 12.0 mph19.3 kmh 30.00 in1015.9 mb 0.00 in0.0 mm 0.00 in0.0 mm 0.00 in0.0 mm
03:09 PM 89.5°F31.9°C 73.6°F23.1°C 59% 3.0 mph WNW4.8 kmh WNW 11.0 mph17.7 kmh 30.00 in1015.9 mb 0.00 in0.0 mm 0.00 in0.0 mm 0.00 in0.0 mm
03:14 PM 89.4°F31.9°C 73.5°F23.1°C 59% 3.7 mph W6.0 kmh W 11.0 mph17.7 kmh 29.99 in1015.6 mb 0.00 in0.0 mm 0.00 in0.0 mm 0.00 in0.0 mm
03:19 PM 89.5°F31.9°C 73.1°F22.8°C 58% 6.2 mph WNW10.0 kmh WNW 11.0 mph17.7 kmh 30.00 in1015.9 mb 0.00 in0.0 mm 0.00 in0.0 mm 0.00 in0.0 mm
03:24 PM 89.6°F32.0°C 73.7°F23.2°C 59% 3.9 mph NW6.3 kmh NW 12.0 mph19.3 kmh 30.00 in1015.9 mb 0.00 in0.0 mm 0.00 in0.0 mm 0.00 in0.0 mm
03:29 PM 89.8°F32.1°C 73.9°F23.3°C 59% 2.9 mph W4.7 kmh W 12.0 mph19.3 kmh 29.99 in1015.6 mb 0.00 in0.0 mm 0.00 in0.0 mm 0.00 in0.0 mm
03:34 PM 89.8°F32.1°C 73.0°F22.8°C 58% 3.9 mph WNW6.3 kmh WNW 13.0 mph20.9 kmh 29.99 in1015.6 mb 0.00 in0.0 mm 0.00 in0.0 mm 0.00 in0.0 mm
03:39 PM 90.1°F32.3°C 73.6°F23.1°C 58% 3.0 mph W4.8 kmh W 13.0 mph20.9 kmh 29.99 in1015.6 mb 0.00 in0.0 mm 0.00 in0.0 mm 0.00 in0.0 mm
03:44 PM 90.1°F32.3°C 72.6°F22.6°C 56% 4.1 mph W6.6 kmh W 13.0 mph20.9 kmh 29.99 in1015.6 mb 0.00 in0.0 mm 0.00 in0.0 mm 0.00 in0.0 mm
03:49 PM 89.9°F32.2°C 72.4°F22.4°C 56% 4.9 mph WNW7.9 kmh WNW 10.0 mph16.1 kmh 29.99 in1015.6 mb 0.00 in0.0 mm 0.00 in0.0 mm 0.00 in0.0 mm
03:54 PM 90.4°F32.4°C 72.8°F22.7°C 56% 5.0 mph W8.0 kmh W 10.0 mph16.1 kmh 29.99 in1015.6 mb 0.00 in0.0 mm 0.00 in0.0 mm 0.00 in0.0 mm
03:59 PM 90.3°F32.4°C 72.7°F22.6°C 56% 4.3 mph WNW6.9 kmh WNW 10.0 mph16.1 kmh 29.99 in1015.6 mb 0.00 in0.0 mm 0.00 in0.0 mm 0.00 in0.0 mm
04:04 PM 90.5°F32.5°C 73.5°F23.1°C 57% 2.5 mph W4.0 kmh W 10.0 mph16.1 kmh 29.99 in1015.6 mb 0.00 in0.0 mm 0.00 in0.0 mm 0.00 in0.0 mm
04:09 PM 90.4°F32.4°C 72.8°F22.7°C 56% 6.1 mph WNW9.8 kmh WNW 13.0 mph20.9 kmh 29.99 in1015.6 mb 0.00 in0.0 mm 0.00 in0.0 mm 0.00 in0.0 mm
04:14 PM 90.2°F32.3°C 72.6°F22.6°C 56% 4.4 mph WNW7.1 kmh WNW 13.0 mph20.9 kmh 29.99 in1015.6 mb 0.00 in0.0 mm 0.00 in0.0 mm 0.00 in0.0 mm
04:19 PM 90.4°F32.4°C 72.8°F22.7°C 56% 2.6 mph WNW4.2 kmh WNW 13.0 mph20.9 kmh 29.99 in1015.6 mb 0.00 in0.0 mm 0.00 in0.0 mm 0.00 in0.0 mm
04:24 PM 90.5°F32.5°C 72.4°F22.4°C 55% 3.9 mph WSW6.3 kmh WSW 13.0 mph20.9 kmh 29.99 in1015.6 mb 0.00 in0.0 mm 0.00 in0.0 mm 0.00 in0.0 mm
04:28 PM 90.7°F32.6°C 73.1°F22.8°C 56% 1.4 mph W2.3 kmh W 11.0 mph17.7 kmh 29.99 in1015.6 mb 0.00 in0.0 mm 0.00 in0.0 mm 0.00 in0.0 mm
04:33 PM 90.8°F32.7°C 73.2°F22.9°C 56% 3.3 mph NW5.3 kmh NW 9.0 mph14.5 kmh 29.99 in1015.6 mb 0.00 in0.0 mm 0.00 in0.0 mm 0.00 in0.0 mm
04:38 PM 90.6°F32.6°C 73.0°F22.8°C 56% 2.5 mph NW4.0 kmh NW 9.0 mph14.5 kmh 29.99 in1015.6 mb 0.00 in0.0 mm 0.00 in0.0 mm 0.00 in0.0 mm
04:43 PM 90.7°F32.6°C 73.1°F22.8°C 56% 4.6 mph W7.4 kmh W 10.0 mph16.1 kmh 29.98 in1015.2 mb 0.00 in0.0 mm 0.00 in0.0 mm 0.00 in0.0 mm
04:48 PM 90.7°F32.6°C 73.1°F22.8°C 56% 2.9 mph W4.7 kmh W 10.0 mph16.1 kmh 29.98 in1015.2 mb 0.00 in0.0 mm 0.00 in0.0 mm 0.00 in0.0 mm
04:53 PM 90.6°F32.6°C 73.0°F22.8°C 56% 3.5 mph WNW5.6 kmh WNW 10.0 mph16.1 kmh 29.98 in1015.2 mb 0.00 in0.0 mm 0.00 in0.0 mm 0.00 in0.0 mm
04:58 PM 90.6°F32.6°C 74.1°F23.4°C 58% 2.6 mph W4.2 kmh W 10.0 mph16.1 kmh 29.98 in1015.2 mb 0.00 in0.0 mm 0.00 in0.0 mm 0.00 in0.0 mm
05:03 PM 90.8°F32.7°C 73.7°F23.2°C 57% 2.9 mph WNW4.7 kmh WNW 7.0 mph11.3 kmh 29.98 in1015.2 mb 0.00 in0.0 mm 0.00 in0.0 mm 0.00 in0.0 mm
05:08 PM 90.9°F32.7°C 74.4°F23.6°C 58% 2.2 mph WNW3.5 kmh WNW 6.0 mph9.7 kmh 29.98 in1015.2 mb 0.00 in0.0 mm 0.00 in0.0 mm 0.00 in0.0 mm
05:13 PM 90.8°F32.7°C 73.7°F23.2°C 57% 5.1 mph WNW8.2 kmh WNW 9.0 mph14.5 kmh 29.98 in1015.2 mb 0.00 in0.0 mm 0.00 in0.0 mm 0.00 in0.0 mm
05:18 PM 91.0°F32.8°C 74.2°F23.4°C 58% 1.0 mph WNW1.6 kmh WNW 9.0 mph14.5 kmh 29.98 in1015.2 mb 0.00 in0.0 mm 0.00 in0.0 mm 0.00 in0.0 mm
05:23 PM 90.9°F32.7°C 73.8°F23.2°C 57% 2.9 mph NW4.7 kmh NW 9.0 mph14.5 kmh 29.98 in1015.2 mb 0.00 in0.0 mm 0.00 in0.0 mm 0.00 in0.0 mm
05:28 PM 91.0°F32.8°C 74.5°F23.6°C 58% 3.5 mph WNW5.6 kmh WNW 9.0 mph14.5 kmh 29.98 in1015.2 mb 0.00 in0.0 mm 0.00 in0.0 mm 0.00 in0.0 mm
05:33 PM 90.2°F32.3°C 74.2°F23.4°C 59% 3.0 mph WNW4.8 kmh WNW 8.0 mph12.9 kmh 29.98 in1015.2 mb 0.00 in0.0 mm 0.00 in0.0 mm 0.00 in0.0 mm
05:38 PM 90.3°F32.4°C 74.8°F23.8°C 60% 1.3 mph WSW2.1 kmh WSW 8.0 mph12.9 kmh 29.98 in1015.2 mb 0.00 in0.0 mm 0.00 in0.0 mm 0.00 in0.0 mm
05:43 PM 90.8°F32.7°C 75.0°F23.9°C 60% 2.6 mph WSW4.2 kmh WSW 7.0 mph11.3 kmh 29.98 in1015.2 mb 0.00 in0.0 mm 0.00 in0.0 mm 0.00 in0.0 mm
05:48 PM 90.6°F32.6°C 74.1°F23.4°C 58% 4.7 mph WSW7.6 kmh WSW 9.0 mph14.5 kmh 29.98 in1015.2 mb 0.00 in0.0 mm 0.00 in0.0 mm 0.00 in0.0 mm
05:53 PM 90.5°F32.5°C 74.5°F23.6°C 59% 2.8 mph WSW4.5 kmh WSW 9.0 mph14.5 kmh 29.98 in1015.2 mb 0.00 in0.0 mm 0.00 in0.0 mm 0.00 in0.0 mm
05:58 PM 90.6°F32.6°C 74.6°F23.7°C 59% 2.5 mph WSW4.0 kmh WSW 9.0 mph14.5 kmh 29.98 in1015.2 mb 0.00 in0.0 mm 0.00 in0.0 mm 0.00 in0.0 mm
06:03 PM 90.4°F32.4°C 74.4°F23.6°C 59% 3.3 mph W5.3 kmh W 9.0 mph14.5 kmh 29.98 in1015.2 mb 0.00 in0.0 mm 0.00 in0.0 mm 0.00 in0.0 mm
06:08 PM 90.4°F32.4°C 74.4°F23.6°C 59% 2.4 mph W3.9 kmh W 7.0 mph11.3 kmh 29.98 in1015.2 mb 0.00 in0.0 mm 0.00 in0.0 mm 0.00 in0.0 mm
06:13 PM 90.3°F32.4°C 74.5°F23.6°C 60% 3.7 mph W6.0 kmh W 9.0 mph14.5 kmh 29.98 in1015.2 mb 0.00 in0.0 mm 0.00 in0.0 mm 0.00 in0.0 mm
06:18 PM 90.2°F32.3°C 74.7°F23.7°C 60% 2.8 mph WSW4.5 kmh WSW 9.0 mph14.5 kmh 29.98 in1015.2 mb 0.00 in0.0 mm 0.00 in0.0 mm 0.00 in0.0 mm
06:23 PM 90.2°F32.3°C 74.7°F23.7°C 60% 2.4 mph WSW3.9 kmh WSW 10.0 mph16.1 kmh 29.97 in1014.9 mb 0.00 in0.0 mm 0.00 in0.0 mm 0.00 in0.0 mm
06:28 PM 90.4°F32.4°C 75.1°F23.9°C 61% 2.4 mph W3.9 kmh W 10.0 mph16.1 kmh 29.97 in1014.9 mb 0.00 in0.0 mm 0.00 in0.0 mm 0.00 in0.0 mm
06:33 PM 90.8°F32.7°C 75.8°F24.3°C 61% 2.5 mph SW4.0 kmh SW 10.0 mph16.1 kmh 29.97 in1014.9 mb 0.00 in0.0 mm 0.00 in0.0 mm 0.00 in0.0 mm
06:38 PM 90.5°F32.5°C 76.0°F24.4°C 62% Calm Calm 10.0 mph16.1 kmh 29.97 in1014.9 mb 0.00 in0.0 mm 0.00 in0.0 mm 0.00 in0.0 mm
06:43 PM 90.6°F32.6°C 75.6°F24.2°C 61% 1.6 mph SW2.6 kmh SW 7.0 mph11.3 kmh 29.97 in1014.9 mb 0.00 in0.0 mm 0.00 in0.0 mm 0.00 in0.0 mm
06:48 PM 90.6°F32.6°C 76.1°F24.5°C 62% 1.3 mph SW2.1 kmh SW 4.0 mph6.4 kmh 29.97 in1014.9 mb 0.00 in0.0 mm 0.00 in0.0 mm 0.00 in0.0 mm
06:53 PM 90.6°F32.6°C 76.1°F24.5°C 62% 1.2 mph W1.9 kmh W 3.0 mph4.8 kmh 29.97 in1014.9 mb 0.00 in0.0 mm 0.00 in0.0 mm 0.00 in0.0 mm
06:58 PM 90.6°F32.6°C 76.1°F24.5°C 62% 1.1 mph SW1.8 kmh SW 3.0 mph4.8 kmh 29.97 in1014.9 mb 0.00 in0.0 mm 0.00 in0.0 mm 0.00 in0.0 mm
07:03 PM 90.4°F32.4°C 75.6°F24.2°C 62% 1.0 mph WSW1.6 kmh WSW 3.0 mph4.8 kmh 29.97 in1014.9 mb 0.00 in0.0 mm 0.00 in0.0 mm 0.00 in0.0 mm
07:08 PM 90.1°F32.3°C 76.1°F24.5°C 63% 1.5 mph SW2.4 kmh SW 2.0 mph3.2 kmh 29.97 in1014.9 mb 0.00 in0.0 mm 0.00 in0.0 mm 0.00 in0.0 mm
07:13 PM 90.0°F32.2°C 76.0°F24.4°C 63% 1.0 mph WSW1.6 kmh WSW 2.0 mph3.2 kmh 29.97 in1014.9 mb 0.00 in0.0 mm 0.00 in0.0 mm 0.00 in0.0 mm
07:18 PM 89.8°F32.1°C 76.3°F24.6°C 64% Calm Calm 2.0 mph3.2 kmh 29.97 in1014.9 mb 0.00 in0.0 mm 0.00 in0.0 mm 0.00 in0.0 mm
07:23 PM 89.5°F31.9°C 76.5°F24.7°C 65% 1.0 mph SW1.6 kmh SW 2.0 mph3.2 kmh 29.97 in1014.9 mb 0.00 in0.0 mm 0.00 in0.0 mm 0.00 in0.0 mm
07:28 PM 89.1°F31.7°C 76.6°F24.8°C 66% Calm Calm 1.0 mph1.6 kmh 29.97 in1014.9 mb 0.00 in0.0 mm 0.00 in0.0 mm 0.00 in0.0 mm
07:33 PM 88.6°F31.4°C 76.5°F24.7°C 67% Calm Calm 1.0 mph1.6 kmh 29.97 in1014.9 mb 0.00 in0.0 mm 0.00 in0.0 mm 0.00 in0.0 mm
07:38 PM 88.1°F31.2°C 76.5°F24.7°C 68% Calm Calm 1.0 mph1.6 kmh 29.98 in1015.2 mb 0.00 in0.0 mm 0.00 in0.0 mm 0.00 in0.0 mm
07:43 PM 87.6°F30.9°C 76.4°F24.7°C 69% Calm Calm -- 29.98 in1015.2 mb 0.00 in0.0 mm 0.00 in0.0 mm 0.00 in0.0 mm
07:48 PM 87.2°F30.7°C 76.1°F24.5°C 69% 1.0 mph SW1.6 kmh SW 1.0 mph1.6 kmh 29.98 in1015.2 mb 0.00 in0.0 mm 0.00 in0.0 mm 0.00 in0.0 mm
07:53 PM 87.0°F30.6°C 75.9°F24.4°C 69% 1.0 mph SW1.6 kmh SW 1.0 mph1.6 kmh 29.98 in1015.2 mb 0.00 in0.0 mm 0.00 in0.0 mm 0.00 in0.0 mm
07:58 PM 86.9°F30.5°C 75.9°F24.4°C 70% Calm Calm 1.0 mph1.6 kmh 29.98 in1015.2 mb 0.00 in0.0 mm 0.00 in0.0 mm 0.00 in0.0 mm
08:03 PM 86.7°F30.4°C 76.8°F24.9°C 72% Calm Calm 1.0 mph1.6 kmh 29.98 in1015.2 mb 0.00 in0.0 mm 0.00 in0.0 mm 0.00 in0.0 mm
08:08 PM 86.3°F30.2°C 76.4°F24.7°C 72% Calm Calm 1.0 mph1.6 kmh 29.98 in1015.2 mb 0.00 in0.0 mm 0.00 in0.0 mm 0.00 in0.0 mm
08:13 PM 86.1°F30.1°C 76.4°F24.7°C 73% Calm Calm -- 29.98 in1015.2 mb 0.00 in0.0 mm 0.00 in0.0 mm 0.00 in0.0 mm
08:18 PM 85.9°F29.9°C 76.1°F24.5°C 72% Calm Calm -- 29.98 in1015.2 mb 0.00 in0.0 mm 0.00 in0.0 mm 0.00 in0.0 mm
08:23 PM 85.9°F29.9°C 76.1°F24.5°C 72% Calm Calm -- 29.98 in1015.2 mb 0.00 in0.0 mm 0.00 in0.0 mm 0.00 in0.0 mm
08:28 PM 85.8°F29.9°C 76.0°F24.4°C 72% Calm Calm -- 29.98 in1015.2 mb 0.00 in0.0 mm 0.00 in0.0 mm 0.00 in0.0 mm
08:33 PM 85.7°F29.8°C 76.0°F24.4°C 73% 1.0 mph SW1.6 kmh SW 1.0 mph1.6 kmh 29.98 in1015.2 mb 0.00 in0.0 mm 0.00 in0.0 mm 0.00 in0.0 mm
08:38 PM 85.5°F29.7°C 76.1°F24.5°C 73% Calm Calm 1.0 mph1.6 kmh 29.98 in1015.2 mb 0.00 in0.0 mm 0.00 in0.0 mm 0.00 in0.0 mm
08:43 PM 85.3°F29.6°C 76.7°F24.8°C 75% Calm Calm 1.0 mph1.6 kmh 29.98 in1015.2 mb 0.00 in0.0 mm 0.00 in0.0 mm 0.00 in0.0 mm
08:48 PM 84.9°F29.4°C 76.1°F24.5°C 75% Calm Calm 1.0 mph1.6 kmh 29.98 in1015.2 mb 0.00 in0.0 mm 0.00 in0.0 mm 0.00 in0.0 mm
08:53 PM 84.6°F29.2°C 76.4°F24.7°C 76% Calm Calm 1.0 mph1.6 kmh 29.99 in1015.6 mb 0.00 in0.0 mm 0.00 in0.0 mm 0.00 in0.0 mm
08:58 PM 84.4°F29.1°C 76.6°F24.8°C 77% 1.0 mph SW1.6 kmh SW 1.0 mph1.6 kmh 29.99 in1015.6 mb 0.00 in0.0 mm 0.00 in0.0 mm 0.00 in0.0 mm
09:03 PM 84.1°F28.9°C 76.1°F24.5°C 77% 1.0 mph SW1.6 kmh SW 1.0 mph1.6 kmh 29.99 in1015.6 mb 0.00 in0.0 mm 0.00 in0.0 mm 0.00 in0.0 mm
09:08 PM 84.0°F28.9°C 76.6°F24.8°C 78% Calm Calm 1.0 mph1.6 kmh 29.99 in1015.6 mb 0.00 in0.0 mm 0.00 in0.0 mm 0.00 in0.0 mm
09:13 PM 83.8°F28.8°C 76.4°F24.7°C 78% Calm Calm 1.0 mph1.6 kmh 29.99 in1015.6 mb 0.00 in0.0 mm 0.00 in0.0 mm 0.00 in0.0 mm
09:18 PM 83.6°F28.7°C 76.5°F24.7°C 79% Calm Calm 1.0 mph1.6 kmh 29.99 in1015.6 mb 0.00 in0.0 mm 0.00 in0.0 mm 0.00 in0.0 mm
09:23 PM 83.4°F28.6°C 76.3°F24.6°C 79% Calm Calm 1.0 mph1.6 kmh 29.99 in1015.6 mb 0.00 in0.0 mm 0.00 in0.0 mm 0.00 in0.0 mm
09:27 PM 83.3°F28.5°C 76.6°F24.8°C 80% 1.0 mph SW1.6 kmh SW 1.0 mph1.6 kmh 30.00 in1015.9 mb 0.00 in0.0 mm 0.00 in0.0 mm 0.00 in0.0 mm
09:32 PM 83.0°F28.3°C 76.6°F24.8°C 81% Calm Calm 1.0 mph1.6 kmh 30.00 in1015.9 mb 0.00 in0.0 mm 0.00 in0.0 mm 0.00 in0.0 mm
09:37 PM 82.7°F28.2°C 76.7°F24.8°C 82% Calm Calm 1.0 mph1.6 kmh 30.00 in1015.9 mb 0.00 in0.0 mm 0.00 in0.0 mm 0.00 in0.0 mm
09:42 PM 82.5°F28.1°C 76.5°F24.7°C 82% Calm Calm 1.0 mph1.6 kmh 30.00 in1015.9 mb 0.00 in0.0 mm 0.00 in0.0 mm 0.00 in0.0 mm
09:47 PM 82.3°F27.9°C 76.6°F24.8°C 83% Calm Calm 1.0 mph1.6 kmh 30.00 in1015.9 mb 0.00 in0.0 mm 0.00 in0.0 mm 0.00 in0.0 mm
09:52 PM 82.1°F27.8°C 76.5°F24.7°C 83% Calm Calm 1.0 mph1.6 kmh 30.00 in1015.9 mb 0.00 in0.0 mm 0.00 in0.0 mm 0.00 in0.0 mm
09:57 PM 81.8°F27.7°C 76.6°F24.8°C 84% Calm Calm 1.0 mph1.6 kmh 30.00 in1015.9 mb 0.00 in0.0 mm 0.00 in0.0 mm 0.00 in0.0 mm
10:02 PM 81.5°F27.5°C 76.6°F24.8°C 85% Calm Calm 1.0 mph1.6 kmh 30.00 in1015.9 mb 0.00 in0.0 mm 0.00 in0.0 mm 0.00 in0.0 mm
10:07 PM 81.2°F27.3°C 76.7°F24.8°C 86% Calm Calm -- 30.00 in1015.9 mb 0.00 in0.0 mm 0.00 in0.0 mm 0.00 in0.0 mm
10:12 PM 80.9°F27.2°C 76.7°F24.8°C 87% 1.0 mph SW1.6 kmh SW 1.0 mph1.6 kmh 30.00 in1015.9 mb 0.00 in0.0 mm 0.00 in0.0 mm 0.00 in0.0 mm
10:17 PM 80.7°F27.1°C 76.5°F24.7°C 87% 1.0 mph SW1.6 kmh SW 1.0 mph1.6 kmh 30.00 in1015.9 mb 0.00 in0.0 mm 0.00 in0.0 mm 0.00 in0.0 mm
10:22 PM 80.5°F26.9°C 76.6°F24.8°C 88% 1.1 mph SW1.8 kmh SW 3.0 mph4.8 kmh 30.00 in1015.9 mb 0.00 in0.0 mm 0.00 in0.0 mm 0.00 in0.0 mm
10:27 PM 80.4°F26.9°C 76.5°F24.7°C 88% 1.4 mph SW2.3 kmh SW 3.0 mph4.8 kmh 30.00 in1015.9 mb 0.00 in0.0 mm 0.00 in0.0 mm 0.00 in0.0 mm
10:32 PM 80.2°F26.8°C 76.3°F24.6°C 88% 1.0 mph SW1.6 kmh SW 3.0 mph4.8 kmh 30.00 in1015.9 mb 0.00 in0.0 mm 0.00 in0.0 mm 0.00 in0.0 mm
10:37 PM 80.1°F26.7°C 76.2°F24.6°C 88% 1.4 mph SW2.3 kmh SW 3.0 mph4.8 kmh 30.00 in1015.9 mb 0.00 in0.0 mm 0.00 in0.0 mm 0.00 in0.0 mm
10:42 PM 80.0°F26.7°C 76.5°F24.7°C 89% 1.0 mph SW1.6 kmh SW 2.0 mph3.2 kmh 30.00 in1015.9 mb 0.00 in0.0 mm 0.00 in0.0 mm 0.00 in0.0 mm
10:47 PM 79.8°F26.6°C 76.3°F24.6°C 89% 1.0 mph SW1.6 kmh SW 2.0 mph3.2 kmh 30.00 in1015.9 mb 0.00 in0.0 mm 0.00 in0.0 mm 0.00 in0.0 mm
10:52 PM 79.7°F26.5°C 76.2°F24.6°C 89% 1.0 mph SW1.6 kmh SW 2.0 mph3.2 kmh 30.00 in1015.9 mb 0.00 in0.0 mm 0.00 in0.0 mm 0.00 in0.0 mm
10:57 PM 79.6°F26.4°C 76.1°F24.5°C 89% Calm Calm 2.0 mph3.2 kmh 30.00 in1015.9 mb 0.00 in0.0 mm 0.00 in0.0 mm 0.00 in0.0 mm
11:02 PM 79.5°F26.4°C 76.0°F24.4°C 89% 1.3 mph WSW2.1 kmh WSW 2.0 mph3.2 kmh 30.00 in1015.9 mb 0.00 in0.0 mm 0.00 in0.0 mm 0.00 in0.0 mm
11:07 PM 79.5°F26.4°C 76.0°F24.4°C 89% 1.3 mph S2.1 kmh S 3.0 mph4.8 kmh 30.00 in1015.9 mb 0.00 in0.0 mm 0.00 in0.0 mm 0.00 in0.0 mm
11:12 PM 79.6°F26.4°C 75.7°F24.3°C 88% Calm Calm 3.0 mph4.8 kmh 30.00 in1015.9 mb 0.00 in0.0 mm 0.00 in0.0 mm 0.00 in0.0 mm
11:17 PM 79.5°F26.4°C 75.6°F24.2°C 88% 1.3 mph SW2.1 kmh SW 3.0 mph4.8 kmh 30.01 in1016.3 mb 0.00 in0.0 mm 0.00 in0.0 mm 0.00 in0.0 mm
11:22 PM 79.4°F26.3°C 75.5°F24.2°C 88% 1.0 mph SW1.6 kmh SW 3.0 mph4.8 kmh 30.01 in1016.3 mb 0.00 in0.0 mm 0.00 in0.0 mm 0.00 in0.0 mm
11:27 PM 79.4°F26.3°C 75.5°F24.2°C 88% 1.6 mph SW2.6 kmh SW 3.0 mph4.8 kmh 30.01 in1016.3 mb 0.00 in0.0 mm 0.00 in0.0 mm 0.00 in0.0 mm
11:32 PM 79.4°F26.3°C 75.5°F24.2°C 88% 1.6 mph WSW2.6 kmh WSW 3.0 mph4.8 kmh 30.01 in1016.3 mb 0.00 in0.0 mm 0.00 in0.0 mm 0.00 in0.0 mm
11:37 PM 79.4°F26.3°C 75.5°F24.2°C 88% 1.1 mph SW1.8 kmh SW 4.0 mph6.4 kmh 30.01 in1016.3 mb 0.00 in0.0 mm 0.00 in0.0 mm 0.00 in0.0 mm
11:42 PM 79.6°F26.4°C 75.7°F24.3°C 88% 1.6 mph WSW2.6 kmh WSW 4.0 mph6.4 kmh 30.01 in1016.3 mb 0.00 in0.0 mm 0.00 in0.0 mm 0.00 in0.0 mm
11:47 PM 79.7°F26.5°C 75.8°F24.3°C 88% 1.8 mph WSW2.9 kmh WSW 4.0 mph6.4 kmh 30.01 in1016.3 mb 0.00 in0.0 mm 0.00 in0.0 mm 0.00 in0.0 mm
11:52 PM 79.7°F26.5°C 75.8°F24.3°C 88% 1.0 mph WSW1.6 kmh WSW 4.0 mph6.4 kmh 30.01 in1016.3 mb 0.00 in0.0 mm 0.00 in0.0 mm 0.00 in0.0 mm
11:57 PM 79.5°F26.4°C 75.6°F24.2°C 88% 1.1 mph SW1.8 kmh SW 4.0 mph6.4 kmh 30.02 in1016.6 mb 0.00 in0.0 mm 0.00 in0.0 mm 0.00 in0.0 mm